sensor_id;sensor_type;location;lat;lon;timestamp;P1;durP1;ratioP1;P2;durP2;ratioP2
15958;SDS011;8078;47.822;9.402;2024-03-06T00:00:46;5.73;;;4.20;;
15958;SDS011;8078;47.822;9.402;2024-03-06T00:03:12;4.20;;;3.80;;
15958;SDS011;8078;47.822;9.402;2024-03-06T00:05:37;5.87;;;4.00;;
15958;SDS011;8078;47.822;9.402;2024-03-06T00:08:03;5.57;;;3.90;;
15958;SDS011;8078;47.822;9.402;2024-03-06T00:10:29;4.33;;;3.70;;
15958;SDS011;8078;47.822;9.402;2024-03-06T00:12:55;4.80;;;3.70;;
15958;SDS011;8078;47.822;9.402;2024-03-06T00:15:20;4.33;;;3.57;;
15958;SDS011;8078;47.822;9.402;2024-03-06T00:17:46;7.30;;;4.20;;
15958;SDS011;8078;47.822;9.402;2024-03-06T00:20:11;5.33;;;3.93;;
15958;SDS011;8078;47.822;9.402;2024-03-06T00:22:37;4.43;;;3.53;;
15958;SDS011;8078;47.822;9.402;2024-03-06T00:25:03;4.93;;;3.40;;
15958;SDS011;8078;47.822;9.402;2024-03-06T00:27:29;4.97;;;3.27;;
15958;SDS011;8078;47.822;9.402;2024-03-06T00:29:54;3.63;;;3.30;;
15958;SDS011;8078;47.822;9.402;2024-03-06T00:32:20;4.73;;;3.07;;
15958;SDS011;8078;47.822;9.402;2024-03-06T00:34:45;4.23;;;3.83;;
15958;SDS011;8078;47.822;9.402;2024-03-06T00:37:11;6.13;;;2.80;;
15958;SDS011;8078;47.822;9.402;2024-03-06T00:39:36;5.20;;;2.67;;
15958;SDS011;8078;47.822;9.402;2024-03-06T00:42:02;4.40;;;3.00;;
15958;SDS011;8078;47.822;9.402;2024-03-06T00:44:28;3.73;;;2.90;;
15958;SDS011;8078;47.822;9.402;2024-03-06T00:46:54;4.60;;;2.67;;
15958;SDS011;8078;47.822;9.402;2024-03-06T00:49:19;3.20;;;2.90;;
15958;SDS011;8078;47.822;9.402;2024-03-06T00:51:45;3.30;;;3.00;;
15958;SDS011;8078;47.822;9.402;2024-03-06T00:54:10;3.97;;;3.00;;
15958;SDS011;8078;47.822;9.402;2024-03-06T00:56:39;3.00;;;2.80;;
15958;SDS011;8078;47.822;9.402;2024-03-06T00:59:05;3.50;;;2.93;;
15958;SDS011;8078;47.822;9.402;2024-03-06T01:01:30;7.43;;;3.27;;
15958;SDS011;8078;47.822;9.402;2024-03-06T01:03:56;3.53;;;3.10;;
15958;SDS011;8078;47.822;9.402;2024-03-06T01:06:22;3.83;;;3.40;;
15958;SDS011;8078;47.822;9.402;2024-03-06T01:08:47;4.70;;;3.10;;
15958;SDS011;8078;47.822;9.402;2024-03-06T01:11:13;3.40;;;3.10;;
15958;SDS011;8078;47.822;9.402;2024-03-06T01:13:41;3.63;;;3.00;;
15958;SDS011;8078;47.822;9.402;2024-03-06T01:16:06;5.47;;;3.60;;
15958;SDS011;8078;47.822;9.402;2024-03-06T01:18:32;5.50;;;2.93;;
15958;SDS011;8078;47.822;9.402;2024-03-06T01:20:57;6.30;;;3.20;;
15958;SDS011;8078;47.822;9.402;2024-03-06T01:23:23;4.10;;;2.90;;
15958;SDS011;8078;47.822;9.402;2024-03-06T01:25:49;4.40;;;3.10;;
15958;SDS011;8078;47.822;9.402;2024-03-06T01:28:14;4.43;;;3.03;;
15958;SDS011;8078;47.822;9.402;2024-03-06T01:30:40;2.80;;;2.60;;
15958;SDS011;8078;47.822;9.402;2024-03-06T01:33:05;3.47;;;2.67;;
15958;SDS011;8078;47.822;9.402;2024-03-06T01:35:31;3.83;;;2.93;;
15958;SDS011;8078;47.822;9.402;2024-03-06T01:37:57;3.57;;;2.70;;
15958;SDS011;8078;47.822;9.402;2024-03-06T01:40:23;3.33;;;3.03;;
15958;SDS011;8078;47.822;9.402;2024-03-06T01:42:49;3.93;;;3.10;;
15958;SDS011;8078;47.822;9.402;2024-03-06T01:45:15;3.30;;;3.00;;
15958;SDS011;8078;47.822;9.402;2024-03-06T01:47:40;3.27;;;2.97;;
15958;SDS011;8078;47.822;9.402;2024-03-06T01:50:06;7.30;;;3.30;;
15958;SDS011;8078;47.822;9.402;2024-03-06T01:52:34;6.53;;;2.97;;
15958;SDS011;8078;47.822;9.402;2024-03-06T01:55:00;3.87;;;3.40;;
15958;SDS011;8078;47.822;9.402;2024-03-06T01:57:26;3.47;;;3.10;;
15958;SDS011;8078;47.822;9.402;2024-03-06T01:59:52;4.23;;;3.13;;
15958;SDS011;8078;47.822;9.402;2024-03-06T02:02:19;3.63;;;3.13;;
15958;SDS011;8078;47.822;9.402;2024-03-06T02:04:45;3.57;;;3.27;;
15958;SDS011;8078;47.822;9.402;2024-03-06T02:07:11;3.70;;;3.20;;
15958;SDS011;8078;47.822;9.402;2024-03-06T02:09:39;4.83;;;3.10;;
15958;SDS011;8078;47.822;9.402;2024-03-06T02:12:05;8.07;;;3.60;;
15958;SDS011;8078;47.822;9.402;2024-03-06T02:14:36;5.03;;;3.90;;
15958;SDS011;8078;47.822;9.402;2024-03-06T02:17:01;5.13;;;3.67;;
15958;SDS011;8078;47.822;9.402;2024-03-06T02:19:40;4.73;;;3.87;;
15958;SDS011;8078;47.822;9.402;2024-03-06T02:22:07;3.77;;;3.33;;
15958;SDS011;8078;47.822;9.402;2024-03-06T02:24:33;4.53;;;3.30;;
15958;SDS011;8078;47.822;9.402;2024-03-06T02:26:59;4.40;;;3.50;;
15958;SDS011;8078;47.822;9.402;2024-03-06T02:29:25;4.30;;;3.90;;
15958;SDS011;8078;47.822;9.402;2024-03-06T02:31:50;4.97;;;4.13;;
15958;SDS011;8078;47.822;9.402;2024-03-06T02:34:16;5.97;;;4.00;;
15958;SDS011;8078;47.822;9.402;2024-03-06T02:36:42;5.73;;;4.17;;
15958;SDS011;8078;47.822;9.402;2024-03-06T02:39:07;6.63;;;4.47;;
15958;SDS011;8078;47.822;9.402;2024-03-06T02:41:36;5.00;;;4.50;;
15958;SDS011;8078;47.822;9.402;2024-03-06T02:44:02;5.20;;;4.57;;
15958;SDS011;8078;47.822;9.402;2024-03-06T02:46:28;6.83;;;5.10;;
15958;SDS011;8078;47.822;9.402;2024-03-06T02:48:54;9.23;;;5.50;;
15958;SDS011;8078;47.822;9.402;2024-03-06T02:51:20;7.50;;;5.20;;
15958;SDS011;8078;47.822;9.402;2024-03-06T02:53:47;8.37;;;5.47;;
15958;SDS011;8078;47.822;9.402;2024-03-06T02:56:17;11.57;;;5.93;;
15958;SDS011;8078;47.822;9.402;2024-03-06T02:58:43;9.87;;;5.83;;
15958;SDS011;8078;47.822;9.402;2024-03-06T03:01:09;9.90;;;6.13;;
15958;SDS011;8078;47.822;9.402;2024-03-06T03:03:35;7.53;;;5.50;;
15958;SDS011;8078;47.822;9.402;2024-03-06T03:06:01;7.20;;;5.70;;
15958;SDS011;8078;47.822;9.402;2024-03-06T03:08:27;8.73;;;5.90;;
15958;SDS011;8078;47.822;9.402;2024-03-06T03:10:53;7.17;;;5.00;;
15958;SDS011;8078;47.822;9.402;2024-03-06T03:13:18;7.23;;;5.50;;
15958;SDS011;8078;47.822;9.402;2024-03-06T03:15:44;7.67;;;5.17;;
15958;SDS011;8078;47.822;9.402;2024-03-06T03:18:10;7.87;;;5.53;;
15958;SDS011;8078;47.822;9.402;2024-03-06T03:20:35;6.40;;;5.30;;
15958;SDS011;8078;47.822;9.402;2024-03-06T03:23:01;7.70;;;5.53;;
15958;SDS011;8078;47.822;9.402;2024-03-06T03:25:27;6.73;;;5.57;;
15958;SDS011;8078;47.822;9.402;2024-03-06T03:27:53;8.53;;;5.50;;
15958;SDS011;8078;47.822;9.402;2024-03-06T03:30:18;7.47;;;6.23;;
15958;SDS011;8078;47.822;9.402;2024-03-06T03:32:47;10.73;;;6.47;;
15958;SDS011;8078;47.822;9.402;2024-03-06T03:35:13;9.37;;;6.23;;
15958;SDS011;8078;47.822;9.402;2024-03-06T03:37:39;8.60;;;6.50;;
15958;SDS011;8078;47.822;9.402;2024-03-06T03:40:05;8.93;;;6.50;;
15958;SDS011;8078;47.822;9.402;2024-03-06T03:42:32;11.57;;;6.57;;
15958;SDS011;8078;47.822;9.402;2024-03-06T03:44:57;9.80;;;6.73;;
15958;SDS011;8078;47.822;9.402;2024-03-06T03:47:23;13.90;;;7.23;;
15958;SDS011;8078;47.822;9.402;2024-03-06T03:49:48;12.40;;;7.00;;
15958;SDS011;8078;47.822;9.402;2024-03-06T03:52:14;10.37;;;7.40;;
15958;SDS011;8078;47.822;9.402;2024-03-06T03:54:40;9.33;;;6.60;;
15958;SDS011;8078;47.822;9.402;2024-03-06T03:57:06;10.93;;;6.67;;
15958;SDS011;8078;47.822;9.402;2024-03-06T03:59:33;10.93;;;7.33;;
15958;SDS011;8078;47.822;9.402;2024-03-06T04:01:59;12.00;;;8.10;;
15958;SDS011;8078;47.822;9.402;2024-03-06T04:04:24;10.90;;;7.57;;
15958;SDS011;8078;47.822;9.402;2024-03-06T04:06:50;12.57;;;7.67;;
15958;SDS011;8078;47.822;9.402;2024-03-06T04:09:15;14.10;;;7.93;;
15958;SDS011;8078;47.822;9.402;2024-03-06T04:11:41;11.97;;;7.17;;
15958;SDS011;8078;47.822;9.402;2024-03-06T04:14:06;12.70;;;7.70;;
15958;SDS011;8078;47.822;9.402;2024-03-06T04:16:33;12.10;;;7.40;;
15958;SDS011;8078;47.822;9.402;2024-03-06T04:18:59;12.43;;;7.87;;
15958;SDS011;8078;47.822;9.402;2024-03-06T04:21:24;11.47;;;7.23;;
15958;SDS011;8078;47.822;9.402;2024-03-06T04:23:50;11.53;;;7.00;;
15958;SDS011;8078;47.822;9.402;2024-03-06T04:26:15;9.60;;;6.67;;
15958;SDS011;8078;47.822;9.402;2024-03-06T04:28:42;12.10;;;7.77;;
15958;SDS011;8078;47.822;9.402;2024-03-06T04:31:08;11.00;;;6.80;;
15958;SDS011;8078;47.822;9.402;2024-03-06T04:33:34;9.97;;;6.60;;
15958;SDS011;8078;47.822;9.402;2024-03-06T04:36:01;9.37;;;6.60;;
15958;SDS011;8078;47.822;9.402;2024-03-06T04:38:30;10.47;;;6.27;;
15958;SDS011;8078;47.822;9.402;2024-03-06T04:40:56;10.73;;;5.97;;
15958;SDS011;8078;47.822;9.402;2024-03-06T04:43:22;7.77;;;5.90;;
15958;SDS011;8078;47.822;9.402;2024-03-06T04:45:47;7.73;;;5.87;;
15958;SDS011;8078;47.822;9.402;2024-03-06T04:48:13;8.87;;;5.73;;
15958;SDS011;8078;47.822;9.402;2024-03-06T04:50:38;11.40;;;5.73;;
15958;SDS011;8078;47.822;9.402;2024-03-06T04:53:04;9.57;;;6.47;;
15958;SDS011;8078;47.822;9.402;2024-03-06T04:55:29;7.50;;;5.53;;
15958;SDS011;8078;47.822;9.402;2024-03-06T04:57:55;9.97;;;5.67;;
15958;SDS011;8078;47.822;9.402;2024-03-06T05:00:21;9.50;;;6.07;;
15958;SDS011;8078;47.822;9.402;2024-03-06T05:02:48;8.33;;;6.30;;
15958;SDS011;8078;47.822;9.402;2024-03-06T05:05:16;7.67;;;5.97;;
15958;SDS011;8078;47.822;9.402;2024-03-06T05:07:41;7.87;;;5.50;;
15958;SDS011;8078;47.822;9.402;2024-03-06T05:10:07;9.57;;;6.30;;
15958;SDS011;8078;47.822;9.402;2024-03-06T05:12:33;7.97;;;5.83;;
15958;SDS011;8078;47.822;9.402;2024-03-06T05:14:59;8.87;;;6.53;;
15958;SDS011;8078;47.822;9.402;2024-03-06T05:17:26;8.27;;;6.30;;
15958;SDS011;8078;47.822;9.402;2024-03-06T05:19:52;9.43;;;6.00;;
15958;SDS011;8078;47.822;9.402;2024-03-06T05:22:19;7.90;;;6.47;;
15958;SDS011;8078;47.822;9.402;2024-03-06T05:24:46;8.20;;;6.00;;
15958;SDS011;8078;47.822;9.402;2024-03-06T05:27:11;10.53;;;6.53;;
15958;SDS011;8078;47.822;9.402;2024-03-06T05:29:42;9.73;;;6.17;;
15958;SDS011;8078;47.822;9.402;2024-03-06T05:32:08;11.00;;;6.33;;
15958;SDS011;8078;47.822;9.402;2024-03-06T05:34:34;11.97;;;7.40;;
15958;SDS011;8078;47.822;9.402;2024-03-06T05:37:00;10.27;;;6.60;;
15958;SDS011;8078;47.822;9.402;2024-03-06T05:39:26;8.53;;;6.10;;
15958;SDS011;8078;47.822;9.402;2024-03-06T05:41:54;7.57;;;5.90;;
15958;SDS011;8078;47.822;9.402;2024-03-06T05:44:20;8.60;;;5.60;;
15958;SDS011;8078;47.822;9.402;2024-03-06T05:46:46;10.00;;;6.40;;
15958;SDS011;8078;47.822;9.402;2024-03-06T05:49:12;7.23;;;5.37;;
15958;SDS011;8078;47.822;9.402;2024-03-06T05:51:38;7.93;;;5.70;;
15958;SDS011;8078;47.822;9.402;2024-03-06T05:54:04;9.23;;;5.53;;
15958;SDS011;8078;47.822;9.402;2024-03-06T05:56:33;8.07;;;5.30;;
15958;SDS011;8078;47.822;9.402;2024-03-06T05:58:59;10.00;;;5.37;;
15958;SDS011;8078;47.822;9.402;2024-03-06T06:01:29;6.93;;;4.97;;
15958;SDS011;8078;47.822;9.402;2024-03-06T06:03:55;8.03;;;5.63;;
15958;SDS011;8078;47.822;9.402;2024-03-06T06:06:21;7.97;;;5.13;;
15958;SDS011;8078;47.822;9.402;2024-03-06T06:08:47;11.00;;;6.50;;
15958;SDS011;8078;47.822;9.402;2024-03-06T06:11:13;12.80;;;7.00;;
15958;SDS011;8078;47.822;9.402;2024-03-06T06:13:39;8.90;;;5.60;;
15958;SDS011;8078;47.822;9.402;2024-03-06T06:16:04;8.87;;;5.13;;
15958;SDS011;8078;47.822;9.402;2024-03-06T06:18:30;7.63;;;5.20;;
15958;SDS011;8078;47.822;9.402;2024-03-06T06:20:57;10.67;;;5.40;;
15958;SDS011;8078;47.822;9.402;2024-03-06T06:23:26;8.00;;;5.73;;
15958;SDS011;8078;47.822;9.402;2024-03-06T06:25:51;12.43;;;5.93;;
15958;SDS011;8078;47.822;9.402;2024-03-06T06:28:17;14.07;;;6.07;;
15958;SDS011;8078;47.822;9.402;2024-03-06T06:30:43;8.93;;;5.47;;
15958;SDS011;8078;47.822;9.402;2024-03-06T06:33:08;9.37;;;6.50;;
15958;SDS011;8078;47.822;9.402;2024-03-06T06:35:34;8.73;;;5.90;;
15958;SDS011;8078;47.822;9.402;2024-03-06T06:38:00;8.60;;;6.37;;
15958;SDS011;8078;47.822;9.402;2024-03-06T06:40:26;9.00;;;6.30;;
15958;SDS011;8078;47.822;9.402;2024-03-06T06:42:55;11.67;;;7.03;;
15958;SDS011;8078;47.822;9.402;2024-03-06T06:45:21;10.07;;;7.03;;
15958;SDS011;8078;47.822;9.402;2024-03-06T06:47:47;9.93;;;6.30;;
15958;SDS011;8078;47.822;9.402;2024-03-06T06:50:13;10.63;;;6.07;;
15958;SDS011;8078;47.822;9.402;2024-03-06T06:52:39;10.07;;;6.33;;
15958;SDS011;8078;47.822;9.402;2024-03-06T06:55:05;10.73;;;6.33;;
15958;SDS011;8078;47.822;9.402;2024-03-06T06:57:32;9.07;;;6.53;;
15958;SDS011;8078;47.822;9.402;2024-03-06T06:59:58;9.43;;;6.43;;
15958;SDS011;8078;47.822;9.402;2024-03-06T07:02:24;13.23;;;7.87;;
15958;SDS011;8078;47.822;9.402;2024-03-06T07:04:50;11.07;;;7.30;;
15958;SDS011;8078;47.822;9.402;2024-03-06T07:07:16;12.33;;;7.90;;
15958;SDS011;8078;47.822;9.402;2024-03-06T07:09:42;10.30;;;7.03;;
15958;SDS011;8078;47.822;9.402;2024-03-06T07:12:08;11.30;;;7.60;;
15958;SDS011;8078;47.822;9.402;2024-03-06T07:14:34;12.93;;;7.70;;
15958;SDS011;8078;47.822;9.402;2024-03-06T07:17:00;12.17;;;8.63;;
15958;SDS011;8078;47.822;9.402;2024-03-06T07:19:26;10.83;;;8.43;;
15958;SDS011;8078;47.822;9.402;2024-03-06T07:21:51;12.50;;;8.30;;
15958;SDS011;8078;47.822;9.402;2024-03-06T07:24:18;10.77;;;8.13;;
15958;SDS011;8078;47.822;9.402;2024-03-06T07:26:44;10.13;;;7.13;;
15958;SDS011;8078;47.822;9.402;2024-03-06T07:29:10;11.70;;;8.07;;
15958;SDS011;8078;47.822;9.402;2024-03-06T07:31:40;11.87;;;8.40;;
15958;SDS011;8078;47.822;9.402;2024-03-06T07:34:06;11.87;;;7.20;;
15958;SDS011;8078;47.822;9.402;2024-03-06T07:36:33;12.07;;;7.23;;
15958;SDS011;8078;47.822;9.402;2024-03-06T07:39:00;11.63;;;6.70;;
15958;SDS011;8078;47.822;9.402;2024-03-06T07:41:26;9.53;;;7.17;;
15958;SDS011;8078;47.822;9.402;2024-03-06T07:43:52;14.83;;;9.43;;
15958;SDS011;8078;47.822;9.402;2024-03-06T07:46:17;11.63;;;8.03;;
15958;SDS011;8078;47.822;9.402;2024-03-06T07:48:43;12.33;;;8.70;;
15958;SDS011;8078;47.822;9.402;2024-03-06T07:51:09;12.23;;;8.50;;
15958;SDS011;8078;47.822;9.402;2024-03-06T07:53:34;8.87;;;6.63;;
15958;SDS011;8078;47.822;9.402;2024-03-06T07:56:00;9.33;;;6.80;;
15958;SDS011;8078;47.822;9.402;2024-03-06T07:58:28;9.10;;;6.70;;
15958;SDS011;8078;47.822;9.402;2024-03-06T08:00:53;9.97;;;6.13;;
15958;SDS011;8078;47.822;9.402;2024-03-06T08:03:20;9.10;;;6.47;;
15958;SDS011;8078;47.822;9.402;2024-03-06T08:05:47;8.70;;;5.93;;
15958;SDS011;8078;47.822;9.402;2024-03-06T08:08:19;10.17;;;6.40;;
15958;SDS011;8078;47.822;9.402;2024-03-06T08:10:45;9.00;;;6.93;;
15958;SDS011;8078;47.822;9.402;2024-03-06T08:13:11;9.73;;;7.63;;
15958;SDS011;8078;47.822;9.402;2024-03-06T08:15:36;9.03;;;6.63;;
15958;SDS011;8078;47.822;9.402;2024-03-06T08:18:02;13.70;;;9.67;;
15958;SDS011;8078;47.822;9.402;2024-03-06T08:20:31;7.97;;;6.43;;
15958;SDS011;8078;47.822;9.402;2024-03-06T08:22:57;8.10;;;6.30;;
15958;SDS011;8078;47.822;9.402;2024-03-06T08:25:23;8.43;;;6.03;;
15958;SDS011;8078;47.822;9.402;2024-03-06T08:27:49;7.40;;;5.90;;
15958;SDS011;8078;47.822;9.402;2024-03-06T08:30:14;7.87;;;5.70;;
15958;SDS011;8078;47.822;9.402;2024-03-06T08:32:40;7.77;;;5.90;;
15958;SDS011;8078;47.822;9.402;2024-03-06T08:35:13;8.40;;;6.13;;
15958;SDS011;8078;47.822;9.402;2024-03-06T08:37:39;7.63;;;5.60;;
15958;SDS011;8078;47.822;9.402;2024-03-06T08:40:06;6.97;;;6.00;;
15958;SDS011;8078;47.822;9.402;2024-03-06T08:42:43;8.70;;;6.70;;
15958;SDS011;8078;47.822;9.402;2024-03-06T08:45:09;9.67;;;7.10;;
15958;SDS011;8078;47.822;9.402;2024-03-06T08:47:35;9.83;;;7.13;;
15958;SDS011;8078;47.822;9.402;2024-03-06T08:50:01;8.87;;;6.30;;
15958;SDS011;8078;47.822;9.402;2024-03-06T08:52:27;7.17;;;6.00;;
15958;SDS011;8078;47.822;9.402;2024-03-06T08:54:53;9.13;;;6.07;;
15958;SDS011;8078;47.822;9.402;2024-03-06T08:57:19;7.73;;;5.97;;
15958;SDS011;8078;47.822;9.402;2024-03-06T08:59:48;7.87;;;5.53;;
15958;SDS011;8078;47.822;9.402;2024-03-06T09:02:17;7.77;;;5.60;;
15958;SDS011;8078;47.822;9.402;2024-03-06T09:04:44;8.17;;;5.77;;
15958;SDS011;8078;47.822;9.402;2024-03-06T09:07:11;8.87;;;6.20;;
15958;SDS011;8078;47.822;9.402;2024-03-06T09:09:37;7.70;;;6.17;;
15958;SDS011;8078;47.822;9.402;2024-03-06T09:12:04;7.63;;;6.00;;
15958;SDS011;8078;47.822;9.402;2024-03-06T09:14:31;7.63;;;5.73;;
15958;SDS011;8078;47.822;9.402;2024-03-06T09:16:57;6.03;;;4.70;;
15958;SDS011;8078;47.822;9.402;2024-03-06T09:19:23;5.00;;;4.20;;
15958;SDS011;8078;47.822;9.402;2024-03-06T09:21:48;5.63;;;4.70;;
15958;SDS011;8078;47.822;9.402;2024-03-06T09:24:14;5.23;;;4.40;;
15958;SDS011;8078;47.822;9.402;2024-03-06T09:26:40;4.70;;;3.90;;
15958;SDS011;8078;47.822;9.402;2024-03-06T09:29:05;5.57;;;4.77;;
15958;SDS011;8078;47.822;9.402;2024-03-06T09:31:31;5.53;;;4.80;;
15958;SDS011;8078;47.822;9.402;2024-03-06T09:33:56;5.87;;;4.60;;
15958;SDS011;8078;47.822;9.402;2024-03-06T09:36:23;8.50;;;5.23;;
15958;SDS011;8078;47.822;9.402;2024-03-06T09:38:48;4.47;;;4.07;;
15958;SDS011;8078;47.822;9.402;2024-03-06T09:41:14;4.70;;;4.20;;
15958;SDS011;8078;47.822;9.402;2024-03-06T09:43:40;4.47;;;4.07;;
15958;SDS011;8078;47.822;9.402;2024-03-06T09:46:08;5.33;;;4.40;;
15958;SDS011;8078;47.822;9.402;2024-03-06T09:48:34;4.30;;;3.90;;
15958;SDS011;8078;47.822;9.402;2024-03-06T09:51:01;4.30;;;3.53;;
15958;SDS011;8078;47.822;9.402;2024-03-06T09:53:27;4.53;;;3.97;;
15958;SDS011;8078;47.822;9.402;2024-03-06T09:55:53;3.27;;;2.97;;
15958;SDS011;8078;47.822;9.402;2024-03-06T09:58:21;4.00;;;3.50;;
15958;SDS011;8078;47.822;9.402;2024-03-06T10:00:47;3.50;;;2.93;;
15958;SDS011;8078;47.822;9.402;2024-03-06T10:03:15;3.17;;;2.87;;
15958;SDS011;8078;47.822;9.402;2024-03-06T10:05:40;8.37;;;6.57;;
15958;SDS011;8078;47.822;9.402;2024-03-06T10:08:08;4.37;;;3.60;;
15958;SDS011;8078;47.822;9.402;2024-03-06T10:10:34;4.30;;;3.07;;
15958;SDS011;8078;47.822;9.402;2024-03-06T10:13:01;3.63;;;3.13;;
15958;SDS011;8078;47.822;9.402;2024-03-06T10:15:27;4.40;;;3.60;;
15958;SDS011;8078;47.822;9.402;2024-03-06T10:20:52;3.40;;;3.10;;
15958;SDS011;8078;47.822;9.402;2024-03-06T10:23:18;3.67;;;3.30;;
15958;SDS011;8078;47.822;9.402;2024-03-06T10:25:44;4.77;;;4.27;;
15958;SDS011;8078;47.822;9.402;2024-03-06T10:28:11;5.33;;;4.70;;
15958;SDS011;8078;47.822;9.402;2024-03-06T10:30:38;4.17;;;3.77;;
15958;SDS011;8078;47.822;9.402;2024-03-06T10:33:07;8.13;;;4.20;;
15958;SDS011;8078;47.822;9.402;2024-03-06T10:35:34;3.93;;;3.53;;
15958;SDS011;8078;47.822;9.402;2024-03-06T10:38:03;4.03;;;3.60;;
15958;SDS011;8078;47.822;9.402;2024-03-06T10:40:34;3.17;;;2.90;;
15958;SDS011;8078;47.822;9.402;2024-03-06T10:43:02;5.50;;;3.70;;
15958;SDS011;8078;47.822;9.402;2024-03-06T10:48:06;4.23;;;3.83;;
15958;SDS011;8078;47.822;9.402;2024-03-06T10:50:32;4.33;;;3.90;;
15958;SDS011;8078;47.822;9.402;2024-03-06T10:53:00;3.20;;;2.90;;
15958;SDS011;8078;47.822;9.402;2024-03-06T10:55:28;2.53;;;2.33;;
15958;SDS011;8078;47.822;9.402;2024-03-06T10:57:58;2.97;;;2.73;;
15958;SDS011;8078;47.822;9.402;2024-03-06T11:00:24;3.07;;;2.77;;
15958;SDS011;8078;47.822;9.402;2024-03-06T11:02:53;2.77;;;2.57;;
15958;SDS011;8078;47.822;9.402;2024-03-06T11:05:20;3.00;;;2.80;;
15958;SDS011;8078;47.822;9.402;2024-03-06T11:07:46;2.93;;;2.60;;
15958;SDS011;8078;47.822;9.402;2024-03-06T11:10:12;2.57;;;2.37;;
15958;SDS011;8078;47.822;9.402;2024-03-06T11:12:41;2.83;;;2.50;;
15958;SDS011;8078;47.822;9.402;2024-03-06T11:15:18;6.07;;;4.80;;
15958;SDS011;8078;47.822;9.402;2024-03-06T11:17:45;3.03;;;2.73;;
15958;SDS011;8078;47.822;9.402;2024-03-06T11:20:16;2.67;;;2.47;;
15958;SDS011;8078;47.822;9.402;2024-03-06T11:28:11;2.70;;;2.50;;
15958;SDS011;8078;47.822;9.402;2024-03-06T11:30:45;3.87;;;2.87;;
15958;SDS011;8078;47.822;9.402;2024-03-06T11:33:34;3.70;;;3.40;;
15958;SDS011;8078;47.822;9.402;2024-03-06T11:36:22;4.33;;;2.47;;
15958;SDS011;8078;47.822;9.402;2024-03-06T11:38:51;2.50;;;2.30;;
15958;SDS011;8078;47.822;9.402;2024-03-06T11:41:18;3.60;;;3.30;;
15958;SDS011;8078;47.822;9.402;2024-03-06T11:43:44;2.50;;;2.30;;
15958;SDS011;8078;47.822;9.402;2024-03-06T11:46:11;2.70;;;2.50;;
15958;SDS011;8078;47.822;9.402;2024-03-06T11:48:37;2.30;;;2.20;;
15958;SDS011;8078;47.822;9.402;2024-03-06T11:51:04;2.20;;;2.10;;
15958;SDS011;8078;47.822;9.402;2024-03-06T11:53:30;2.70;;;2.50;;
15958;SDS011;8078;47.822;9.402;2024-03-06T11:55:58;2.40;;;2.20;;
15958;SDS011;8078;47.822;9.402;2024-03-06T11:58:24;2.47;;;2.27;;
15958;SDS011;8078;47.822;9.402;2024-03-06T12:00:50;2.70;;;2.50;;
15958;SDS011;8078;47.822;9.402;2024-03-06T12:03:17;2.23;;;2.03;;
15958;SDS011;8078;47.822;9.402;2024-03-06T12:05:44;4.43;;;2.10;;
15958;SDS011;8078;47.822;9.402;2024-03-06T12:08:10;2.63;;;2.43;;
15958;SDS011;8078;47.822;9.402;2024-03-06T12:10:36;2.63;;;2.40;;
15958;SDS011;8078;47.822;9.402;2024-03-06T12:13:03;2.17;;;2.07;;
15958;SDS011;8078;47.822;9.402;2024-03-06T12:15:29;2.50;;;2.30;;
15958;SDS011;8078;47.822;9.402;2024-03-06T12:17:54;2.47;;;2.27;;
15958;SDS011;8078;47.822;9.402;2024-03-06T12:20:20;1.83;;;1.73;;
15958;SDS011;8078;47.822;9.402;2024-03-06T12:22:52;1.90;;;1.80;;
15958;SDS011;8078;47.822;9.402;2024-03-06T12:25:22;1.97;;;1.80;;
15958;SDS011;8078;47.822;9.402;2024-03-06T12:27:49;2.07;;;1.97;;
15958;SDS011;8078;47.822;9.402;2024-03-06T12:30:19;2.30;;;2.10;;
15958;SDS011;8078;47.822;9.402;2024-03-06T12:33:00;1.83;;;1.73;;
15958;SDS011;8078;47.822;9.402;2024-03-06T12:35:29;1.90;;;1.70;;
15958;SDS011;8078;47.822;9.402;2024-03-06T12:37:55;2.40;;;2.20;;
15958;SDS011;8078;47.822;9.402;2024-03-06T12:40:21;3.33;;;3.03;;
15958;SDS011;8078;47.822;9.402;2024-03-06T12:42:47;2.50;;;2.30;;
15958;SDS011;8078;47.822;9.402;2024-03-06T12:45:14;2.37;;;1.70;;
15958;SDS011;8078;47.822;9.402;2024-03-06T12:47:44;2.30;;;2.10;;
15958;SDS011;8078;47.822;9.402;2024-03-06T12:50:13;2.00;;;1.90;;
15958;SDS011;8078;47.822;9.402;2024-03-06T12:52:39;2.33;;;2.13;;
15958;SDS011;8078;47.822;9.402;2024-03-06T12:55:06;1.70;;;1.60;;
15958;SDS011;8078;47.822;9.402;2024-03-06T12:57:32;2.60;;;1.97;;
15958;SDS011;8078;47.822;9.402;2024-03-06T12:59:58;1.90;;;1.80;;
15958;SDS011;8078;47.822;9.402;2024-03-06T13:02:24;1.70;;;1.60;;
15958;SDS011;8078;47.822;9.402;2024-03-06T13:04:50;1.70;;;1.60;;
15958;SDS011;8078;47.822;9.402;2024-03-06T13:07:15;2.67;;;2.47;;
15958;SDS011;8078;47.822;9.402;2024-03-06T13:09:41;2.20;;;2.00;;
15958;SDS011;8078;47.822;9.402;2024-03-06T13:12:07;1.73;;;1.63;;
15958;SDS011;8078;47.822;9.402;2024-03-06T13:14:32;1.70;;;1.60;;
15958;SDS011;8078;47.822;9.402;2024-03-06T13:16:59;1.60;;;1.50;;
15958;SDS011;8078;47.822;9.402;2024-03-06T13:19:26;1.60;;;1.50;;
15958;SDS011;8078;47.822;9.402;2024-03-06T13:21:52;1.90;;;1.73;;
15958;SDS011;8078;47.822;9.402;2024-03-06T13:24:18;1.57;;;1.50;;
15958;SDS011;8078;47.822;9.402;2024-03-06T13:26:44;1.60;;;1.50;;
15958;SDS011;8078;47.822;9.402;2024-03-06T13:29:10;1.50;;;1.40;;
15958;SDS011;8078;47.822;9.402;2024-03-06T13:31:36;1.60;;;1.50;;
15958;SDS011;8078;47.822;9.402;2024-03-06T13:34:03;1.60;;;1.50;;
15958;SDS011;8078;47.822;9.402;2024-03-06T13:36:28;3.37;;;3.10;;
15958;SDS011;8078;47.822;9.402;2024-03-06T13:38:55;3.20;;;2.93;;
15958;SDS011;8078;47.822;9.402;2024-03-06T13:41:21;3.83;;;2.70;;
15958;SDS011;8078;47.822;9.402;2024-03-06T13:43:47;2.43;;;1.80;;
15958;SDS011;8078;47.822;9.402;2024-03-06T13:46:12;1.80;;;1.70;;
15958;SDS011;8078;47.822;9.402;2024-03-06T13:48:38;1.70;;;1.60;;
15958;SDS011;8078;47.822;9.402;2024-03-06T13:51:04;1.80;;;1.60;;
15958;SDS011;8078;47.822;9.402;2024-03-06T13:53:30;1.77;;;1.67;;
15958;SDS011;8078;47.822;9.402;2024-03-06T13:55:56;1.80;;;1.70;;
15958;SDS011;8078;47.822;9.402;2024-03-06T13:58:22;2.20;;;2.00;;
15958;SDS011;8078;47.822;9.402;2024-03-06T14:00:49;1.90;;;1.80;;
15958;SDS011;8078;47.822;9.402;2024-03-06T14:03:14;2.07;;;1.87;;
15958;SDS011;8078;47.822;9.402;2024-03-06T14:05:40;2.93;;;1.67;;
15958;SDS011;8078;47.822;9.402;2024-03-06T14:08:05;1.80;;;1.70;;
15958;SDS011;8078;47.822;9.402;2024-03-06T14:10:32;1.50;;;1.40;;
15958;SDS011;8078;47.822;9.402;2024-03-06T14:12:59;1.43;;;1.33;;
15958;SDS011;8078;47.822;9.402;2024-03-06T14:15:24;1.60;;;1.50;;
15958;SDS011;8078;47.822;9.402;2024-03-06T14:17:51;1.53;;;1.43;;
15958;SDS011;8078;47.822;9.402;2024-03-06T14:20:19;1.60;;;1.50;;
15958;SDS011;8078;47.822;9.402;2024-03-06T14:22:45;1.40;;;1.30;;
15958;SDS011;8078;47.822;9.402;2024-03-06T14:25:10;1.60;;;1.50;;
15958;SDS011;8078;47.822;9.402;2024-03-06T14:27:36;1.60;;;1.50;;
15958;SDS011;8078;47.822;9.402;2024-03-06T14:30:03;5.63;;;2.00;;
15958;SDS011;8078;47.822;9.402;2024-03-06T14:32:29;1.70;;;1.60;;
15958;SDS011;8078;47.822;9.402;2024-03-06T14:34:55;2.60;;;1.80;;
15958;SDS011;8078;47.822;9.402;2024-03-06T14:37:20;87.87;;;6.47;;
15958;SDS011;8078;47.822;9.402;2024-03-06T14:39:46;158.10;;;9.13;;
15958;SDS011;8078;47.822;9.402;2024-03-06T14:42:11;78.07;;;5.60;;
15958;SDS011;8078;47.822;9.402;2024-03-06T14:44:37;74.07;;;6.23;;
15958;SDS011;8078;47.822;9.402;2024-03-06T14:47:03;30.20;;;2.67;;
15958;SDS011;8078;47.822;9.402;2024-03-06T14:49:30;242.00;;;15.53;;
15958;SDS011;8078;47.822;9.402;2024-03-06T14:51:56;73.37;;;5.13;;
15958;SDS011;8078;47.822;9.402;2024-03-06T14:54:22;36.80;;;3.83;;
15958;SDS011;8078;47.822;9.402;2024-03-06T14:56:51;17.00;;;2.40;;
15958;SDS011;8078;47.822;9.402;2024-03-06T14:59:17;258.00;;;13.97;;
15958;SDS011;8078;47.822;9.402;2024-03-06T15:01:43;127.23;;;8.53;;
15958;SDS011;8078;47.822;9.402;2024-03-06T15:04:09;217.87;;;10.63;;